Time;durP1;ratioP1;P1;durP2;ratioP2;P2;SDS_P1;SDS_P2;PMS_P1;PMS_P2;Temp;Humidity;BMP_temperature;BMP_pressure;BME280_temperature;BME280_humidity;BME280_pressure;Samples;Min_cycle;Max_cycle;Signal;HPM_P1;HPM_P2
2023/11/12 00:00:06;;;;;;;10.52;7.43;;;;;6.10;97674.00;;;;4920895;29;20092;-65
2023/11/12 00:02:33;;;;;;;8.35;7.07;;;;;6.20;97664.00;;;;4917797;29;20051;-64
2023/11/12 00:05:00;;;;;;;11.80;6.68;;;;;6.30;97668.00;;;;4917471;29;20457;-65
2023/11/12 00:07:26;;;;;;;10.20;6.75;;;;;6.40;97668.00;;;;4917762;29;20054;-64
2023/11/12 00:09:53;;;;;;;10.07;6.55;;;;;6.40;97673.00;;;;4918063;29;20051;-64
2023/11/12 00:12:22;;;;;;;12.73;7.47;;;;;6.50;97672.00;;;;4917864;29;20108;-64
2023/11/12 00:14:48;;;;;;;10.57;6.22;;;;;6.50;97666.00;;;;4916778;29;20669;-65
2023/11/12 00:17:16;;;;;;;8.52;6.43;;;;;6.40;97659.00;;;;4917670;29;20063;-65
2023/11/12 00:19:43;;;;;;;10.32;6.72;;;;;6.40;97657.00;;;;4918961;29;20044;-65
2023/11/12 00:22:09;;;;;;;8.48;5.78;;;;;6.50;97662.00;;;;4917786;29;20044;-65
2023/11/12 00:24:36;;;;;;;8.10;5.97;;;;;6.40;97666.00;;;;4918250;29;20127;-64
2023/11/12 00:27:03;;;;;;;9.63;6.72;;;;;6.40;97661.00;;;;4901825;29;20044;-65
2023/11/12 00:29:33;;;;;;;9.40;6.80;;;;;6.50;97650.00;;;;4918597;29;20048;-64
2023/11/12 00:32:00;;;;;;;12.02;6.88;;;;;6.50;97647.00;;;;4917471;29;20072;-64
2023/11/12 00:34:27;;;;;;;9.00;6.05;;;;;6.40;97652.00;;;;4916949;29;20107;-64
2023/11/12 00:36:53;;;;;;;9.30;6.18;;;;;6.30;97642.00;;;;4918474;29;20044;-64
2023/11/12 00:39:20;;;;;;;8.45;6.68;;;;;6.30;97651.00;;;;4917280;29;20155;-64
2023/11/12 00:41:47;;;;;;;9.90;7.15;;;;;6.30;97645.00;;;;4917348;29;20512;-64
2023/11/12 00:44:15;;;;;;;11.50;7.78;;;;;6.30;97634.00;;;;4916534;29;20112;-63
2023/11/12 00:46:42;;;;;;;11.25;7.30;;;;;6.20;97639.00;;;;4916997;29;20139;-64
2023/11/12 00:49:09;;;;;;;9.23;6.80;;;;;6.30;97632.00;;;;4918272;29;20067;-65
2023/11/12 00:51:36;;;;;;;8.95;6.43;;;;;6.40;97631.00;;;;4917014;29;20048;-64
2023/11/12 00:54:02;;;;;;;12.45;6.68;;;;;6.40;97632.00;;;;4917742;29;20048;-63
2023/11/12 00:56:29;;;;;;;9.15;6.38;;;;;6.40;97627.00;;;;4916790;29;20079;-62
2023/11/12 00:58:56;;;;;;;11.35;6.43;;;;;6.40;97624.00;;;;4916923;29;20048;-63
2023/11/12 01:01:23;;;;;;;12.30;6.63;;;;;6.40;97628.00;;;;4916835;29;20469;-62
2023/11/12 01:03:49;;;;;;;8.55;6.70;;;;;6.50;97630.00;;;;4917455;29;20048;-62
2023/11/12 01:06:16;;;;;;;10.55;7.20;;;;;6.50;97630.00;;;;4917623;29;20047;-63
2023/11/12 01:08:43;;;;;;;15.13;7.60;;;;;6.50;97636.00;;;;4916647;29;20048;-61
2023/11/12 01:11:11;;;;;;;12.38;8.30;;;;;6.50;97627.00;;;;4916597;29;20076;-64
2023/11/12 01:13:37;;;;;;;13.95;8.52;;;;;6.40;97625.00;;;;4916063;29;20107;-64
2023/11/12 01:16:04;;;;;;;12.27;8.48;;;;;6.40;97621.00;;;;4917954;29;20091;-64
2023/11/12 01:18:33;;;;;;;12.07;8.45;;;;;6.40;97623.00;;;;4916449;29;20055;-65
2023/11/12 01:21:00;;;;;;;12.10;8.48;;;;;6.40;97617.00;;;;4917951;29;20437;-65
2023/11/12 01:23:27;;;;;;;12.43;8.27;;;;;6.50;97614.00;;;;4916958;29;20047;-64
2023/11/12 01:25:54;;;;;;;13.57;8.05;;;;;6.50;97611.00;;;;4916455;29;20048;-65
2023/11/12 01:28:21;;;;;;;10.75;7.30;;;;;6.60;97610.00;;;;4917650;29;20069;-64
2023/11/12 01:30:48;;;;;;;11.75;7.00;;;;;6.70;97606.00;;;;4916343;29;20146;-64
2023/11/12 01:33:18;;;;;;;12.93;6.82;;;;;6.80;97610.00;;;;4916334;29;20063;-64
2023/11/12 01:35:45;;;;;;;10.18;7.25;;;;;6.80;97610.00;;;;4915801;29;20044;-63
2023/11/12 01:38:12;;;;;;;10.32;7.40;;;;;6.80;97601.00;;;;4916402;29;20151;-65
2023/11/12 01:40:39;;;;;;;12.70;7.70;;;;;6.70;97598.00;;;;4916202;29;20142;-65
2023/11/12 01:43:09;;;;;;;11.82;7.82;;;;;6.70;97594.00;;;;4916278;29;20107;-65
2023/11/12 01:45:36;;;;;;;11.05;7.63;;;;;6.60;97586.00;;;;4915412;29;20564;-64
2023/11/12 01:48:04;;;;;;;12.32;8.52;;;;;6.60;97589.00;;;;4916039;29;20059;-65
2023/11/12 01:50:32;;;;;;;12.60;8.57;;;;;6.50;97587.00;;;;4916054;29;20059;-65
2023/11/12 01:52:58;;;;;;;23.55;9.40;;;;;6.50;97583.00;;;;4915958;29;20143;-65
2023/11/12 01:55:26;;;;;;;9.93;7.95;;;;;6.50;97579.00;;;;4916420;29;20044;-65
2023/11/12 01:57:53;;;;;;;12.57;9.07;;;;;6.50;97569.00;;;;4915911;29;20146;-65
2023/11/12 02:00:22;;;;;;;11.10;8.27;;;;;6.50;97578.00;;;;4915778;29;20052;-64
2023/11/12 02:02:51;;;;;;;10.57;7.57;;;;;6.70;97572.00;;;;4915771;29;20048;-64
2023/11/12 02:05:20;;;;;;;13.32;7.90;;;;;6.70;97567.00;;;;4915101;29;20067;-64
2023/11/12 02:07:48;;;;;;;11.70;8.23;;;;;6.70;97567.00;;;;4915625;29;20143;-65
2023/11/12 02:10:16;;;;;;;12.02;8.60;;;;;6.80;97563.00;;;;4915631;29;20497;-65
2023/11/12 02:12:45;;;;;;;13.45;8.45;;;;;6.90;97555.00;;;;4915618;29;20086;-64
2023/11/12 02:15:14;;;;;;;13.82;8.75;;;;;6.80;97557.00;;;;4914833;29;20052;-65
2023/11/12 02:17:45;;;;;;;10.45;7.10;;;;;6.80;97548.00;;;;4916838;29;20409;-65
2023/11/12 02:20:15;;;;;;;8.30;6.80;;;;;6.70;97547.00;;;;4915301;29;20108;-65
2023/11/12 02:22:43;;;;;;;13.23;7.45;;;;;6.70;97551.00;;;;4916721;29;20036;-63
2023/11/12 02:25:10;;;;;;;17.35;8.05;;;;;6.80;97537.00;;;;4899229;29;20043;-64
2023/11/12 02:27:38;;;;;;;8.85;5.88;;;;;6.90;97545.00;;;;4916619;29;20127;-63
2023/11/12 02:30:08;;;;;;;13.35;7.50;;;;;7.00;97543.00;;;;4915410;29;20417;-62
2023/11/12 02:32:37;;;;;;;10.75;7.22;;;;;7.00;97545.00;;;;4915138;29;20052;-62
2023/11/12 02:35:05;;;;;;;9.40;6.63;;;;;7.00;97548.00;;;;4914438;29;20588;-62
2023/11/12 02:37:31;;;;;;;10.60;6.75;;;;;7.10;97549.00;;;;4915181;29;20454;-62
2023/11/12 02:39:58;;;;;;;10.60;8.00;;;;;7.10;97548.00;;;;4915205;29;20103;-62
2023/11/12 02:42:29;;;;;;;10.73;7.72;;;;;7.10;97544.00;;;;4914998;29;20565;-63
2023/11/12 02:44:57;;;;;;;11.55;7.97;;;;;7.20;97548.00;;;;4915514;29;20048;-62
2023/11/12 02:47:23;;;;;;;13.80;7.93;;;;;7.30;97541.00;;;;4916268;29;20490;-62
2023/11/12 02:50:05;;;;;;;13.40;8.68;;;;;7.20;97548.00;;;;4916242;29;20047;-63
2023/11/12 02:52:32;;;;;;;10.95;7.95;;;;;7.20;97547.00;;;;4916245;29;20048;-62
2023/11/12 02:54:59;;;;;;;12.65;7.38;;;;;7.10;97542.00;;;;4914216;29;20076;-64
2023/11/12 02:57:26;;;;;;;10.32;7.55;;;;;7.00;97541.00;;;;4914913;29;20096;-62
2023/11/12 02:59:54;;;;;;;13.13;8.13;;;;;6.90;97538.00;;;;4915991;29;20553;-61
2023/11/12 03:02:22;;;;;;;11.50;7.78;;;;;7.00;97539.00;;;;4914831;29;20052;-62
2023/11/12 03:04:49;;;;;;;12.50;8.77;;;;;7.10;97545.00;;;;4915354;29;20048;-63
2023/11/12 03:07:19;;;;;;;10.95;8.43;;;;;7.30;97541.00;;;;4914663;29;20057;-62
2023/11/12 03:09:47;;;;;;;14.02;8.65;;;;;7.40;97546.00;;;;4915010;29;20421;-63
2023/11/12 03:12:15;;;;;;;12.32;8.30;;;;;7.40;97538.00;;;;4914658;29;20517;-64
2023/11/12 03:14:43;;;;;;;13.13;8.43;;;;;7.40;97535.00;;;;4915228;29;20055;-63
2023/11/12 03:17:09;;;;;;;12.20;7.35;;;;;7.40;97528.00;;;;4916027;29;20127;-62
2023/11/12 03:19:37;;;;;;;11.52;7.57;;;;;7.20;97527.00;;;;4914623;29;20409;-63
2023/11/12 03:22:04;;;;;;;11.52;7.70;;;;;7.10;97532.00;;;;4915793;29;20077;-62
2023/11/12 03:24:31;;;;;;;10.70;7.53;;;;;7.10;97528.00;;;;4915118;29;20052;-62
2023/11/12 03:26:57;;;;;;;10.18;8.05;;;;;7.10;97515.00;;;;4914642;29;20107;-63
2023/11/12 03:29:24;;;;;;;10.93;7.78;;;;;7.20;97513.00;;;;4914502;29;20139;-62
2023/11/12 03:31:53;;;;;;;9.48;7.25;;;;;7.20;97511.00;;;;4915786;29;20043;-62
2023/11/12 03:34:20;;;;;;;13.65;8.13;;;;;7.30;97494.00;;;;4917312;29;20084;-62
2023/11/12 03:36:46;;;;;;;10.50;7.40;;;;;7.30;97500.00;;;;4919474;29;20072;-64
2023/11/12 03:39:13;;;;;;;12.43;7.82;;;;;7.40;97502.00;;;;4918306;29;20062;-62
2023/11/12 03:41:40;;;;;;;9.40;7.22;;;;;7.40;97500.00;;;;4918282;29;20052;-62
2023/11/12 03:44:07;;;;;;;10.88;7.50;;;;;7.40;97493.00;;;;4918695;29;20052;-63
2023/11/12 03:46:36;;;;;;;11.27;7.43;;;;;7.30;97485.00;;;;4918293;29;20060;-62
2023/11/12 03:49:04;;;;;;;11.88;7.22;;;;;7.10;97476.00;;;;4918203;29;20048;-62
2023/11/12 03:51:32;;;;;;;11.52;6.65;;;;;7.10;97472.00;;;;4919563;29;20095;-64
2023/11/12 03:54:01;;;;;;;12.45;6.50;;;;;7.10;97477.00;;;;4917692;29;20450;-63
2023/11/12 03:56:29;;;;;;;12.82;6.82;;;;;7.10;97465.00;;;;4918111;29;20075;-65
2023/11/12 03:58:57;;;;;;;8.70;6.03;;;;;7.00;97466.00;;;;4919452;29;20044;-64
2023/11/12 04:01:24;;;;;;;9.95;6.57;;;;;7.00;97452.00;;;;4919230;29;20040;-65
2023/11/12 04:03:51;;;;;;;7.60;5.63;;;;;7.00;97450.00;;;;4918590;29;20071;-63
2023/11/12 04:06:19;;;;;;;6.18;5.57;;;;;7.00;97451.00;;;;4917973;29;20048;-65
2023/11/12 04:08:46;;;;;;;10.98;6.70;;;;;7.10;97451.00;;;;4918069;29;20044;-64
2023/11/12 04:11:12;;;;;;;8.60;6.50;;;;;7.10;97442.00;;;;4919490;29;20044;-64
2023/11/12 04:13:39;;;;;;;12.93;6.53;;;;;7.10;97434.00;;;;4917268;29;20170;-64
2023/11/12 04:16:06;;;;;;;12.98;6.15;;;;;7.10;97442.00;;;;4917999;29;20130;-62
2023/11/12 04:18:34;;;;;;;9.27;5.53;;;;;7.10;97439.00;;;;4917963;29;20080;-62
2023/11/12 04:21:03;;;;;;;5.90;4.95;;;;;7.00;97443.00;;;;4917843;29;20111;-61
2023/11/12 04:23:30;;;;;;;12.88;4.88;;;;;7.10;97432.00;;;;4901461;29;20056;-62
2023/11/12 04:25:57;;;;;;;9.25;5.20;;;;;7.10;97424.00;;;;4917658;29;20052;-62
2023/11/12 04:28:26;;;;;;;9.13;5.03;;;;;7.00;97430.00;;;;4918894;29;20076;-61
2023/11/12 04:30:54;;;;;;;9.45;5.35;;;;;6.90;97426.00;;;;4918754;29;20048;-62
2023/11/12 04:33:20;;;;;;;9.65;6.30;;;;;6.80;97434.00;;;;4918368;29;20417;-62
2023/11/12 04:35:49;;;;;;;11.45;6.50;;;;;6.80;97436.00;;;;4918469;29;20391;-62
2023/11/12 04:38:18;;;;;;;11.90;6.70;;;;;6.80;97441.00;;;;4917178;29;20040;-62
2023/11/12 04:40:48;;;;;;;9.18;6.50;;;;;6.90;97435.00;;;;4918463;29;20055;-62
2023/11/12 04:43:15;;;;;;;11.27;5.65;;;;;6.90;97432.00;;;;4916710;29;20080;-62
2023/11/12 04:45:43;;;;;;;8.23;6.18;;;;;7.00;97433.00;;;;4917590;29;20188;-65
2023/11/12 04:48:11;;;;;;;11.80;6.72;;;;;7.00;97433.00;;;;4917402;29;20052;-61
2023/11/12 04:50:38;;;;;;;11.02;6.38;;;;;7.00;97434.00;;;;4917141;29;20052;-62
2023/11/12 04:53:06;;;;;;;9.80;6.07;;;;;7.10;97441.00;;;;4918374;29;20050;-62
2023/11/12 04:55:32;;;;;;;9.30;6.00;;;;;7.20;97439.00;;;;4917564;29;20058;-64
2023/11/12 04:58:01;;;;;;;10.05;6.78;;;;;7.30;97431.00;;;;4918145;29;20044;-62
2023/11/12 05:00:28;;;;;;;12.32;5.97;;;;;7.30;97442.00;;;;4916746;29;20520;-62
2023/11/12 05:02:55;;;;;;;9.05;5.82;;;;;7.30;97453.00;;;;4917135;29;20048;-62
2023/11/12 05:05:22;;;;;;;10.30;6.80;;;;;7.30;97453.00;;;;4917662;29;20048;-62
2023/11/12 05:07:51;;;;;;;8.20;6.25;;;;;7.30;97449.00;;;;4916819;29;20135;-62
2023/11/12 05:10:18;;;;;;;8.77;6.22;;;;;7.30;97460.00;;;;4916833;29;20083;-62
2023/11/12 05:12:45;;;;;;;10.45;6.38;;;;;7.30;97457.00;;;;4917838;29;20055;-61
2023/11/12 05:15:12;;;;;;;12.27;6.30;;;;;7.40;97460.00;;;;4915880;29;20052;-61
2023/11/12 05:17:38;;;;;;;10.73;6.03;;;;;7.40;97456.00;;;;4917750;29;20119;-61
2023/11/12 05:20:06;;;;;;;8.98;5.88;;;;;7.40;97459.00;;;;4917707;29;20036;-64
2023/11/12 05:22:32;;;;;;;7.35;5.65;;;;;7.40;97453.00;;;;4916516;29;20048;-60
2023/11/12 05:24:59;;;;;;;11.18;5.93;;;;;7.40;97460.00;;;;4917036;29;20044;-61
2023/11/12 05:27:26;;;;;;;10.20;6.38;;;;;7.50;97465.00;;;;4917449;29;20492;-62
2023/11/12 05:29:53;;;;;;;11.18;6.93;;;;;7.50;97466.00;;;;4917502;29;20572;-62
2023/11/12 05:32:20;;;;;;;14.50;7.28;;;;;7.60;97479.00;;;;4916343;29;20115;-61
2023/11/12 05:34:46;;;;;;;8.30;6.38;;;;;7.50;97474.00;;;;4916774;29;20107;-60
2023/11/12 05:37:13;;;;;;;11.10;7.00;;;;;7.40;97484.00;;;;4917361;29;20126;-62
2023/11/12 05:39:40;;;;;;;7.50;6.18;;;;;7.40;97485.00;;;;4917628;29;20412;-63
2023/11/12 05:42:07;;;;;;;11.25;6.30;;;;;7.30;97482.00;;;;4916177;29;20103;-62
2023/11/12 05:44:34;;;;;;;8.15;6.32;;;;;7.20;97487.00;;;;4916553;29;20131;-62
2023/11/12 05:47:01;;;;;;;10.57;6.85;;;;;7.10;97485.00;;;;4917268;29;20036;-62
2023/11/12 05:49:27;;;;;;;9.60;6.43;;;;;7.00;97494.00;;;;4917258;29;20056;-62
2023/11/12 05:51:54;;;;;;;13.05;6.82;;;;;7.10;97492.00;;;;4916002;29;20062;-62
2023/11/12 05:54:20;;;;;;;9.25;5.80;;;;;7.20;97502.00;;;;4916390;29;20119;-62
2023/11/12 05:56:47;;;;;;;9.70;5.70;;;;;7.30;97501.00;;;;4916028;29;20040;-62
2023/11/12 05:59:13;;;;;;;8.05;6.15;;;;;7.40;97495.00;;;;4916913;29;20040;-62
2023/11/12 06:01:40;;;;;;;8.45;5.63;;;;;7.50;97501.00;;;;4916971;29;20049;-62
2023/11/12 06:04:06;;;;;;;8.07;5.85;;;;;7.50;97502.00;;;;4915102;29;20111;-63
2023/11/12 06:06:33;;;;;;;8.10;5.80;;;;;7.60;97514.00;;;;4916561;29;20523;-62
2023/11/12 06:09:00;;;;;;;8.48;5.95;;;;;7.60;97514.00;;;;4916801;29;20055;-62
2023/11/12 06:11:26;;;;;;;8.57;5.53;;;;;7.70;97517.00;;;;4915714;29;20079;-62
2023/11/12 06:13:53;;;;;;;13.15;5.65;;;;;7.80;97515.00;;;;4916588;29;20438;-63
2023/11/12 06:16:19;;;;;;;8.55;6.00;;;;;7.80;97522.00;;;;4916765;29;20413;-62
2023/11/12 06:18:46;;;;;;;9.32;4.75;;;;;7.90;97527.00;;;;4916699;29;20581;-62
2023/11/12 06:21:14;;;;;;;9.25;4.80;;;;;7.90;97520.00;;;;4916794;29;20051;-62
2023/11/12 06:23:43;;;;;;;10.20;4.78;;;;;7.80;97517.00;;;;4916039;29;20107;-62
2023/11/12 06:26:10;;;;;;;11.50;5.60;;;;;7.80;97528.00;;;;4915243;29;20059;-62
2023/11/12 06:28:37;;;;;;;11.50;5.93;;;;;7.80;97531.00;;;;4915186;29;20044;-64
2023/11/12 06:31:04;;;;;;;13.02;6.43;;;;;7.80;97529.00;;;;4916439;29;20549;-62
2023/11/12 06:33:31;;;;;;;10.25;5.40;;;;;7.90;97526.00;;;;4914650;29;20509;-64
2023/11/12 06:35:58;;;;;;;8.38;4.38;;;;;7.90;97531.00;;;;4916349;29;20048;-62
2023/11/12 06:38:24;;;;;;;8.35;4.50;;;;;7.90;97530.00;;;;4916237;29;20099;-62
2023/11/12 06:40:51;;;;;;;10.90;4.57;;;;;7.80;97539.00;;;;4916179;29;20048;-62
2023/11/12 06:43:18;;;;;;;6.93;4.10;;;;;7.80;97544.00;;;;4916371;29;20048;-63
2023/11/12 06:45:44;;;;;;;10.77;4.35;;;;;7.80;97545.00;;;;4915616;29;20047;-62
2023/11/12 06:48:11;;;;;;;5.18;3.75;;;;;7.80;97540.00;;;;4916153;29;20409;-62
2023/11/12 06:50:38;;;;;;;5.95;3.55;;;;;7.80;97545.00;;;;4916159;29;20048;-64
2023/11/12 06:53:04;;;;;;;9.63;3.60;;;;;7.80;97549.00;;;;4916222;29;20036;-62
2023/11/12 06:55:32;;;;;;;7.93;4.05;;;;;7.60;97550.00;;;;4914165;29;20151;-61
2023/11/12 06:57:59;;;;;;;10.23;4.50;;;;;7.60;97549.00;;;;4915992;29;20047;-62
2023/11/12 07:00:26;;;;;;;5.75;3.20;;;;;7.50;97549.00;;;;4916026;29;20633;-61
2023/11/12 07:02:54;;;;;;;5.25;3.83;;;;;7.40;97549.00;;;;4915985;29;20055;-62
2023/11/12 07:05:21;;;;;;;12.10;4.15;;;;;7.40;97561.00;;;;4915200;29;20132;-62
2023/11/12 07:07:48;;;;;;;7.10;4.50;;;;;7.30;97557.00;;;;4915726;29;20131;-62
2023/11/12 07:10:14;;;;;;;5.38;3.80;;;;;7.20;97558.00;;;;4915822;29;20048;-65
2023/11/12 07:12:42;;;;;;;7.45;3.72;;;;;7.10;97557.00;;;;4916083;29;20048;-63
2023/11/12 07:15:09;;;;;;;4.43;3.78;;;;;7.00;97552.00;;;;4913925;29;20044;-62
2023/11/12 07:17:36;;;;;;;9.57;3.30;;;;;7.00;97565.00;;;;4915839;29;20048;-65
2023/11/12 07:20:05;;;;;;;6.97;4.18;;;;;7.10;97560.00;;;;4915722;29;20123;-64
2023/11/12 07:22:35;;;;;;;8.88;4.75;;;;;7.10;97563.00;;;;4914544;29;20071;-65
2023/11/12 07:25:03;;;;;;;5.38;3.85;;;;;7.10;97563.00;;;;4914138;29;20052;-65
2023/11/12 07:27:31;;;;;;;10.35;3.67;;;;;7.00;97560.00;;;;4926294;29;20103;-62
2023/11/12 07:29:58;;;;;;;6.13;3.38;;;;;7.00;97567.00;;;;4934784;29;20055;-63
2023/11/12 07:32:25;;;;;;;6.72;3.80;;;;;7.00;97566.00;;;;4933241;29;20047;-66
2023/11/12 07:34:52;;;;;;;3.95;3.17;;;;;7.00;97558.00;;;;4934450;29;20051;-62
2023/11/12 07:37:19;;;;;;;9.50;3.67;;;;;7.00;97560.00;;;;4934895;29;20044;-62
2023/11/12 07:39:46;;;;;;;5.85;3.50;;;;;7.00;97556.00;;;;4934836;29;20059;-62
2023/11/12 07:42:13;;;;;;;6.00;2.65;;;;;7.00;97566.00;;;;4934690;29;20043;-63
2023/11/12 07:44:39;;;;;;;3.05;2.70;;;;;7.00;97561.00;;;;4932899;29;20146;-63
2023/11/12 07:47:06;;;;;;;6.32;3.70;;;;;6.90;97573.00;;;;4935071;29;20043;-62
2023/11/12 07:49:33;;;;;;;3.65;2.50;;;;;6.90;97566.00;;;;4933701;29;20056;-62
2023/11/12 07:52:00;;;;;;;4.05;2.70;;;;;7.00;97577.00;;;;4934776;29;20047;-62
2023/11/12 07:54:27;;;;;;;4.03;2.67;;;;;7.00;97582.00;;;;4917216;29;20095;-62
2023/11/12 07:56:53;;;;;;;7.22;2.80;;;;;7.10;97574.00;;;;4934814;29;20508;-65
2023/11/12 07:59:20;;;;;;;3.92;2.75;;;;;7.10;97579.00;;;;4934729;29;20035;-63
2023/11/12 08:01:48;;;;;;;4.32;2.50;;;;;7.20;97583.00;;;;4934569;29;20051;-62
2023/11/12 08:04:14;;;;;;;3.50;2.97;;;;;7.20;97574.00;;;;4916989;29;20058;-62
2023/11/12 08:06:45;;;;;;;23.10;13.20;;;;;7.30;97572.00;;;;4933298;29;20055;-61
2023/11/12 08:09:11;;;;;;;6.40;3.30;;;;;7.40;97577.00;;;;4934618;29;20067;-62
2023/11/12 08:11:40;;;;;;;6.45;3.25;;;;;7.40;97591.00;;;;4934334;29;20051;-63
2023/11/12 08:14:08;;;;;;;4.63;2.70;;;;;7.50;97597.00;;;;4916587;29;20155;-64
2023/11/12 08:16:36;;;;;;;3.70;2.50;;;;;7.60;97593.00;;;;4934507;29;20044;-67
2023/11/12 08:19:03;;;;;;;4.30;2.88;;;;;7.50;97594.00;;;;4934231;29;20191;-65
2023/11/12 08:21:30;;;;;;;5.40;3.33;;;;;7.40;97591.00;;;;4937940;29;20047;-65
2023/11/12 08:23:58;;;;;;;5.88;3.55;;;;;7.50;97596.00;;;;4920155;29;20052;-63
2023/11/12 08:26:27;;;;;;;12.75;3.42;;;;;7.50;97589.00;;;;4937699;29;20059;-64
2023/11/12 08:28:56;;;;;;;8.45;3.88;;;;;7.50;97583.00;;;;4937830;29;20066;-67
2023/11/12 08:31:24;;;;;;;3.33;2.90;;;;;7.50;97596.00;;;;4937610;29;20051;-64
2023/11/12 08:33:51;;;;;;;5.50;3.58;;;;;7.40;97589.00;;;;4937083;29;20405;-65
2023/11/12 08:36:18;;;;;;;6.13;4.20;;;;;7.60;97590.00;;;;4920918;29;20138;-65
2023/11/12 08:38:45;;;;;;;7.65;5.00;;;;;7.60;97586.00;;;;4936408;29;20044;-64
2023/11/12 08:41:12;;;;;;;7.53;5.57;;;;;7.60;97598.00;;;;4937494;29;20043;-65
2023/11/12 08:43:39;;;;;;;5.97;4.25;;;;;7.70;97594.00;;;;4935735;29;20055;-64
2023/11/12 08:46:06;;;;;;;5.95;3.55;;;;;7.80;97596.00;;;;4936293;29;20050;-66
2023/11/12 08:48:34;;;;;;;5.13;3.45;;;;;7.90;97593.00;;;;4937407;29;20122;-66
2023/11/12 08:51:01;;;;;;;8.00;4.05;;;;;7.90;97599.00;;;;4937492;29;20075;-66
2023/11/12 08:53:28;;;;;;;7.90;3.10;;;;;7.90;97601.00;;;;4936523;29;20052;-66
2023/11/12 08:55:54;;;;;;;8.13;4.72;;;;;7.90;97602.00;;;;4937190;29;20412;-63
2023/11/12 08:58:21;;;;;;;8.50;4.32;;;;;7.80;97601.00;;;;4937059;29;20047;-63
2023/11/12 09:00:48;;;;;;;8.25;3.72;;;;;7.70;97600.00;;;;4937020;29;20070;-63
2023/11/12 09:03:15;;;;;;;18.83;11.27;;;;;7.60;97597.00;;;;4936995;29;20055;-63
2023/11/12 09:05:42;;;;;;;9.95;5.05;;;;;7.60;97595.00;;;;4935200;29;20055;-63
2023/11/12 09:08:08;;;;;;;11.32;4.20;;;;;7.60;97600.00;;;;4936871;29;20102;-63
2023/11/12 09:10:35;;;;;;;8.48;3.63;;;;;7.50;97593.00;;;;4937260;29;20047;-61
2023/11/12 09:13:01;;;;;;;7.78;3.50;;;;;7.50;97595.00;;;;4936958;29;20427;-61
2023/11/12 09:15:28;;;;;;;7.45;3.80;;;;;7.50;97598.00;;;;4936082;29;20493;-62
2023/11/12 09:17:55;;;;;;;13.38;5.40;;;;;7.60;97606.00;;;;4935551;29;20039;-62
2023/11/12 09:20:22;;;;;;;11.82;4.43;;;;;7.70;97610.00;;;;4936753;29;20655;-60
2023/11/12 09:22:49;;;;;;;8.95;4.05;;;;;7.90;97611.00;;;;4936702;29;20054;-63
2023/11/12 09:25:16;;;;;;;9.15;4.43;;;;;8.20;97612.00;;;;4936045;29;20099;-63
2023/11/12 09:27:44;;;;;;;9.23;4.88;;;;;8.20;97612.00;;;;4936714;29;20126;-62
2023/11/12 09:30:12;;;;;;;10.43;5.15;;;;;8.40;97614.00;;;;4936529;29;20082;-62
2023/11/12 09:32:38;;;;;;;10.80;5.25;;;;;8.40;97609.00;;;;4936543;29;20166;-64
2023/11/12 09:35:08;;;;;;;11.55;5.15;;;;;8.30;97610.00;;;;4935753;29;20044;-62
2023/11/12 09:37:35;;;;;;;10.02;4.65;;;;;8.30;97600.00;;;;4935363;29;20412;-63
2023/11/12 09:40:02;;;;;;;8.23;3.53;;;;;8.30;97607.00;;;;4935445;29;20535;-61
2023/11/12 09:42:28;;;;;;;4.53;3.28;;;;;8.40;97614.00;;;;4936007;29;20060;-62
2023/11/12 09:44:56;;;;;;;7.07;3.50;;;;;8.40;97607.00;;;;4935731;29;20485;-61
2023/11/12 09:47:40;;;;;;;8.25;3.80;;;;;8.40;97601.00;;;;4919246;29;20086;-62
2023/11/12 09:50:07;;;;;;;;;;;;;8.40;97606.00;;;;4936631;29;20103;-62
2023/11/12 09:52:35;;;;;;;4.80;2.28;;;;;8.40;97607.00;;;;4936214;29;20048;-62
2023/11/12 09:55:03;;;;;;;6.50;3.33;;;;;8.40;97622.00;;;;4935469;29;20053;-64
2023/11/12 09:57:30;;;;;;;4.40;2.45;;;;;8.40;97615.00;;;;4934871;29;20095;-60
2023/11/12 09:59:58;;;;;;;5.00;3.47;;;;;8.50;97618.00;;;;4934793;29;20044;-62
2023/11/12 10:02:26;;;;;;;5.82;3.38;;;;;8.70;97627.00;;;;4936109;29;20047;-65
2023/11/12 10:05:03;;;;;;;4.88;3.28;;;;;8.90;97639.00;;;;4935213;29;20139;-65
2023/11/12 10:07:30;;;;;;;9.30;4.15;;;;;9.10;97645.00;;;;4935804;29;20107;-62
2023/11/12 10:10:23;;;;;;;8.98;4.40;;;;;9.20;97653.00;;;;4935937;29;20047;-63
2023/11/12 10:12:52;;;;;;;5.55;2.97;;;;;9.20;97650.00;;;;4934548;29;20047;-63
2023/11/12 10:15:26;;;;;;;7.22;4.13;;;;;9.20;97647.00;;;;4935121;29;20050;-62
2023/11/12 10:17:54;;;;;;;6.40;3.53;;;;;9.30;97646.00;;;;4918747;29;20044;-63
2023/11/12 10:20:31;;;;;;;4.93;2.72;;;;;9.20;97641.00;;;;4935621;29;20039;-65
2023/11/12 10:22:58;;;;;;;11.00;4.70;;;;;9.30;97637.00;;;;4934679;29;20061;-64
2023/11/12 10:25:37;;;;;;;8.45;4.30;;;;;9.50;97626.00;;;;4935018;29;20054;-65
2023/11/12 10:28:04;;;;;;;4.78;3.80;;;;;9.60;97625.00;;;;4935722;29;20505;-65
2023/11/12 10:30:32;;;;;;;7.15;3.20;;;;;9.50;97624.00;;;;4935569;29;20083;-64
2023/11/12 10:33:23;;;;;;;4.80;2.80;;;;;9.50;97620.00;;;;4934198;29;20051;-63
2023/11/12 10:35:51;;;;;;;3.58;2.78;;;;;9.50;97613.00;;;;4933906;29;20075;-64
2023/11/12 10:38:18;;;;;;;5.70;3.45;;;;;9.50;97615.00;;;;4935303;29;20050;-63
2023/11/12 10:40:58;;;;;;;5.38;3.05;;;;;9.60;97609.00;;;;4934138;29;20130;-64
2023/11/12 10:43:25;;;;;;;6.78;3.42;;;;;9.50;97610.00;;;;4934573;29;20099;-63
2023/11/12 10:45:58;;;;;;;4.25;2.85;;;;;9.60;97623.00;;;;4935296;29;20047;-65
2023/11/12 10:48:36;;;;;;;6.00;3.00;;;;;9.70;97623.00;;;;4935300;29;20043;-65
2023/11/12 10:51:05;;;;;;;5.72;2.95;;;;;9.70;97627.00;;;;4935171;29;20147;-62
2023/11/12 10:53:36;;;;;;;8.63;3.85;;;;;9.70;97619.00;;;;4934594;29;20048;-62
2023/11/12 10:56:05;;;;;;;5.53;3.70;;;;;9.70;97625.00;;;;4933888;29;20047;-63
2023/11/12 10:58:32;;;;;;;7.35;4.63;;;;;9.60;97614.00;;;;4933673;29;20040;-65
2023/11/12 11:01:04;;;;;;;7.55;3.50;;;;;9.70;97624.00;;;;4933886;29;20087;-64
2023/11/12 11:03:33;;;;;;;4.85;2.90;;;;;9.70;97607.00;;;;4934546;29;20049;-65
2023/11/12 11:06:05;;;;;;;8.15;3.30;;;;;9.80;97607.00;;;;4934546;29;20048;-65
2023/11/12 11:08:34;;;;;;;7.82;5.10;;;;;10.00;97609.00;;;;4933636;29;20050;-62
2023/11/12 11:11:03;;;;;;;8.30;4.13;;;;;10.20;97601.00;;;;4934958;29;20047;-64
2023/11/12 11:13:35;;;;;;;6.38;3.83;;;;;10.30;97605.00;;;;4934154;29;20078;-63
2023/11/12 11:16:02;;;;;;;6.75;4.35;;;;;10.40;97605.00;;;;4933660;29;20104;-64
2023/11/12 11:18:32;;;;;;;7.97;4.85;;;;;10.20;97604.00;;;;4933634;29;20051;-64
2023/11/12 11:21:02;;;;;;;7.82;3.90;;;;;10.20;97613.00;;;;4917974;29;20054;-63
2023/11/12 11:23:42;;;;;;;5.40;2.95;;;;;10.40;97599.00;;;;4934218;29;20040;-63
2023/11/12 11:26:38;;;;;;;5.18;3.33;;;;;10.60;97605.00;;;;4933605;29;20500;-65
2023/11/12 11:29:07;;;;;;;5.75;3.28;;;;;10.60;97591.00;;;;4933541;29;20052;-63
2023/11/12 11:31:38;;;;;;;5.70;3.22;;;;;10.60;97595.00;;;;4934784;29;20050;-63
2023/11/12 11:34:10;;;;;;;3.72;2.50;;;;;10.60;97593.00;;;;4917113;29;20067;-63
2023/11/12 11:36:37;;;;;;;5.10;2.33;;;;;10.60;97582.00;;;;4934657;29;20421;-64
2023/11/12 11:39:12;;;;;;;3.47;2.30;;;;;10.70;97589.00;;;;4934632;29;20485;-64
2023/11/12 11:41:42;;;;;;;5.45;2.53;;;;;10.70;97601.00;;;;4934681;29;20130;-64
2023/11/12 11:44:32;;;;;;;12.35;5.68;;;;;10.90;97599.00;;;;4934071;29;20138;-64
2023/11/12 11:47:14;;;;;;;7.45;2.55;;;;;10.90;97591.00;;;;4934074;29;20052;-64
2023/11/12 11:49:58;;;;;;;2.95;1.77;;;;;10.90;97601.00;;;;4934675;29;20106;-64
2023/11/12 11:52:27;;;;;;;4.13;1.80;;;;;10.80;97598.00;;;;4934639;29;20058;-64
2023/11/12 11:55:03;;;;;;;4.07;1.90;;;;;10.70;97607.00;;;;4937152;29;20138;-64
2023/11/12 11:57:31;;;;;;;4.55;2.00;;;;;10.60;97595.00;;;;4938373;29;20047;-63
2023/11/12 11:59:59;;;;;;;4.20;2.63;;;;;10.50;97593.00;;;;4938206;29;20090;-62
2023/11/12 12:02:26;;;;;;;5.55;2.45;;;;;10.60;97594.00;;;;4938203;29;20047;-62
2023/11/12 12:04:57;;;;;;;7.40;3.45;;;;;10.60;97598.00;;;;4937641;29;20103;-63
2023/11/12 12:07:32;;;;;;;7.00;3.08;;;;;10.70;97601.00;;;;4938033;29;20059;-63
2023/11/12 12:09:59;;;;;;;20.50;11.52;;;;;10.70;97602.00;;;;4938335;29;20120;-62
2023/11/12 12:12:30;;;;;;;8.38;6.25;;;;;10.70;97605.00;;;;4936969;29;20051;-61
2023/11/12 12:14:57;;;;;;;6.55;3.10;;;;;10.70;97606.00;;;;4936362;29;20054;-62
2023/11/12 12:17:24;;;;;;;4.05;2.63;;;;;10.80;97616.00;;;;4937932;29;20075;-62
2023/11/12 12:19:52;;;;;;;7.32;3.38;;;;;10.80;97612.00;;;;4937714;29;20059;-63
2023/11/12 12:22:25;;;;;;;3.72;2.20;;;;;10.80;97611.00;;;;4936783;29;20122;-64
2023/11/12 12:24:56;;;;;;;5.50;2.72;;;;;10.90;97616.00;;;;4937194;29;20054;-63
2023/11/12 12:27:24;;;;;;;5.10;2.67;;;;;10.80;97615.00;;;;4937860;29;20460;-63